createdAt,value
2017-12-23T00:00:03.491Z,3.37
2017-12-23T00:00:36.827Z,3.60
2017-12-23T00:01:10.487Z,3.60
2017-12-23T00:01:44.185Z,3.50
2017-12-23T00:02:17.855Z,3.55
2017-12-23T00:02:51.520Z,3.60
2017-12-23T00:03:25.187Z,3.08
2017-12-23T00:03:58.857Z,3.17
2017-12-23T00:04:32.534Z,3.05
2017-12-23T00:05:06.209Z,2.95
2017-12-23T00:05:39.902Z,3.22
2017-12-23T00:06:13.581Z,3.90
2017-12-23T00:06:47.578Z,3.60
2017-12-23T00:07:21.240Z,3.10
2017-12-23T00:07:55.667Z,2.90
2017-12-23T00:08:29.494Z,2.80
2017-12-23T00:09:02.987Z,3.00
2017-12-23T00:09:36.647Z,3.33
2017-12-23T00:10:09.982Z,2.80
2017-12-23T00:10:44.474Z,3.12
2017-12-23T00:11:18.141Z,2.60
2017-12-23T00:11:51.839Z,2.85
2017-12-23T00:12:25.594Z,2.85
2017-12-23T00:12:59.262Z,3.25
2017-12-23T00:13:33.747Z,3.47
2017-12-23T00:14:07.406Z,3.33
2017-12-23T00:14:41.065Z,2.87
2017-12-23T00:15:14.747Z,2.80
2017-12-23T00:15:49.273Z,3.28
2017-12-23T00:16:22.935Z,3.33
2017-12-23T00:16:57.729Z,2.30
2017-12-23T00:17:32.186Z,3.17
2017-12-23T00:18:06.002Z,2.83
2017-12-23T00:18:39.662Z,3.15
2017-12-23T00:19:13.400Z,2.50
2017-12-23T00:19:47.849Z,2.42
2017-12-23T00:20:21.506Z,3.00
2017-12-23T00:20:55.938Z,3.30
2017-12-23T00:21:29.606Z,2.95
2017-12-23T00:22:03.720Z,3.05
2017-12-23T00:22:37.381Z,2.22
2017-12-23T00:23:11.039Z,2.60
2017-12-23T00:23:44.727Z,2.90
2017-12-23T00:24:18.385Z,2.95
2017-12-23T00:24:52.250Z,2.47
2017-12-23T00:25:26.669Z,3.12
2017-12-23T00:26:01.157Z,2.40
2017-12-23T00:26:34.802Z,2.65
2017-12-23T00:27:08.490Z,2.78
2017-12-23T00:27:42.145Z,2.87
2017-12-23T00:28:16.573Z,2.90
2017-12-23T00:28:50.237Z,3.00
2017-12-23T00:29:24.649Z,2.85
2017-12-23T00:29:58.307Z,3.08
2017-12-23T00:30:32.024Z,2.58
2017-12-23T00:31:05.818Z,2.50
2017-12-23T00:31:40.248Z,3.05
2017-12-23T00:32:13.985Z,3.20
2017-12-23T00:32:47.662Z,3.00
2017-12-23T00:33:21.349Z,2.95
2017-12-23T00:33:55.020Z,3.05
2017-12-23T00:34:32.008Z,2.45
2017-12-23T00:35:05.663Z,2.90
2017-12-23T00:35:39.329Z,2.70
2017-12-23T00:36:13.759Z,2.62
2017-12-23T00:36:47.426Z,2.95
2017-12-23T00:37:21.885Z,2.83
2017-12-23T00:37:55.550Z,2.33
2017-12-23T00:38:29.209Z,2.58
2017-12-23T00:39:03.115Z,2.35
2017-12-23T00:39:37.543Z,2.20
2017-12-23T00:40:11.210Z,2.62
2017-12-23T00:40:45.640Z,2.87
2017-12-23T00:41:19.302Z,2.65
2017-12-23T00:41:53.714Z,2.55
2017-12-23T00:42:28.167Z,3.35
2017-12-23T00:43:01.832Z,2.62
2017-12-23T00:43:35.501Z,2.17
2017-12-23T00:44:09.919Z,2.97
2017-12-23T00:44:43.570Z,2.75
2017-12-23T00:45:17.226Z,2.95
2017-12-23T00:45:50.891Z,2.70
2017-12-23T00:46:24.545Z,2.20
2017-12-23T00:46:58.198Z,3.05
2017-12-23T00:47:31.879Z,2.30
2017-12-23T00:48:05.533Z,2.40
2017-12-23T00:48:39.954Z,2.65
2017-12-23T00:49:13.603Z,2.80
2017-12-23T00:49:47.256Z,2.20
2017-12-23T00:50:20.918Z,2.62
2017-12-23T00:50:54.600Z,2.80
2017-12-23T00:51:29.028Z,2.62
2017-12-23T00:52:02.695Z,2.55
2017-12-23T00:52:37.137Z,2.17
2017-12-23T00:53:10.791Z,2.58
2017-12-23T00:53:45.268Z,2.40
2017-12-23T00:54:19.182Z,2.03
2017-12-23T00:54:53.598Z,2.40
2017-12-23T00:55:28.018Z,2.62
2017-12-23T00:56:01.675Z,2.47
2017-12-23T00:56:35.335Z,2.72
2017-12-23T00:57:09.008Z,2.58
2017-12-23T00:57:42.685Z,2.55
2017-12-23T00:58:16.343Z,2.90
2017-12-23T00:58:49.994Z,3.20
2017-12-23T00:59:23.649Z,2.53
2017-12-23T01:00:38.824Z,2.40
2017-12-23T01:01:12.501Z,3.30
2017-12-23T01:01:46.150Z,2.45
2017-12-23T01:02:19.798Z,2.30
2017-12-23T01:02:53.495Z,2.58
2017-12-23T01:03:27.151Z,2.80
2017-12-23T01:04:01.585Z,2.67
2017-12-23T01:04:35.242Z,2.70
2017-12-23T01:05:09.657Z,2.37
2017-12-23T01:05:44.087Z,2.92
2017-12-23T01:06:17.746Z,2.60
2017-12-23T01:06:52.171Z,2.00
2017-12-23T01:07:25.843Z,2.80
2017-12-23T01:08:00.283Z,2.40
2017-12-23T01:08:33.955Z,2.70
2017-12-23T01:09:07.602Z,2.37
2017-12-23T01:09:41.636Z,1.65
2017-12-23T01:10:15.304Z,2.15
2017-12-23T01:10:48.970Z,2.12
2017-12-23T01:11:22.622Z,1.92
2017-12-23T01:11:56.282Z,2.75
2017-12-23T01:12:30.710Z,2.62
2017-12-23T01:13:05.236Z,3.00
2017-12-23T01:13:38.890Z,2.70
2017-12-23T01:14:13.305Z,2.20
2017-12-23T01:14:47.729Z,1.85
2017-12-23T01:15:21.388Z,2.25
2017-12-23T01:15:55.846Z,2.08
2017-12-23T01:16:29.516Z,2.92
2017-12-23T01:17:03.171Z,2.35
2017-12-23T01:17:36.823Z,2.45
2017-12-23T01:18:10.861Z,2.35
2017-12-23T01:18:45.957Z,1.95
2017-12-23T01:19:19.615Z,2.53
2017-12-23T01:19:53.475Z,3.17
2017-12-23T01:20:27.894Z,2.08
2017-12-23T01:21:01.601Z,2.97
2017-12-23T01:21:35.399Z,1.80
2017-12-23T01:22:09.064Z,2.40
2017-12-23T01:22:43.494Z,3.03
2017-12-23T01:23:17.429Z,2.42
2017-12-23T01:23:51.098Z,2.00
2017-12-23T01:24:24.774Z,1.75
2017-12-23T01:24:58.442Z,2.35
2017-12-23T01:25:32.211Z,2.55
2017-12-23T01:26:06.640Z,2.40
2017-12-23T01:26:40.315Z,2.80
2017-12-23T01:27:14.735Z,2.83
2017-12-23T01:27:48.390Z,2.40
2017-12-23T01:28:22.063Z,2.45
2017-12-23T01:28:55.743Z,2.20
2017-12-23T01:29:29.402Z,2.45
2017-12-23T01:30:03.066Z,2.85
2017-12-23T01:30:37.483Z,2.80
2017-12-23T01:31:11.897Z,3.20
2017-12-23T01:31:45.566Z,2.53
2017-12-23T01:32:19.214Z,2.87
2017-12-23T01:32:52.886Z,2.70
2017-12-23T01:33:26.558Z,2.45
2017-12-23T01:34:00.206Z,2.28
2017-12-23T01:34:33.855Z,2.30
2017-12-23T01:35:07.524Z,2.83
2017-12-23T01:35:41.956Z,2.90
2017-12-23T01:36:15.613Z,2.80
2017-12-23T01:36:50.041Z,2.97
2017-12-23T01:37:23.694Z,3.17
2017-12-23T01:37:57.361Z,3.28
2017-12-23T01:38:31.043Z,2.97
2017-12-23T01:39:03.857Z,3.45
2017-12-23T01:39:38.282Z,2.55
2017-12-23T01:40:11.954Z,2.75
2017-12-23T01:40:45.651Z,2.80
2017-12-23T01:41:20.063Z,2.87
2017-12-23T01:41:53.714Z,3.00
2017-12-23T01:42:27.358Z,2.28
2017-12-23T01:43:01.019Z,2.40
2017-12-23T01:43:35.477Z,2.55
2017-12-23T01:44:09.150Z,2.25
2017-12-23T01:44:43.119Z,2.80
2017-12-23T01:45:16.787Z,3.33
2017-12-23T01:45:50.450Z,2.50
2017-12-23T01:46:24.105Z,2.65
2017-12-23T01:46:57.758Z,2.75
2017-12-23T01:47:31.414Z,2.50
2017-12-23T01:48:05.069Z,2.90
2017-12-23T01:48:38.756Z,2.55
2017-12-23T01:49:12.430Z,3.30
2017-12-23T01:49:46.874Z,2.50
2017-12-23T01:50:20.532Z,2.40
2017-12-23T01:50:54.955Z,3.10
2017-12-23T01:51:28.610Z,3.20
2017-12-23T01:52:03.031Z,2.22
2017-12-23T01:52:37.447Z,2.55
2017-12-23T01:53:11.109Z,3.37
2017-12-23T01:53:44.815Z,2.85
2017-12-23T01:54:19.240Z,3.12
2017-12-23T01:54:53.469Z,3.15
2017-12-23T01:55:27.157Z,2.80
2017-12-23T01:56:00.826Z,2.75
2017-12-23T01:56:34.513Z,2.85
2017-12-23T01:57:08.171Z,2.92
2017-12-23T01:57:41.822Z,2.28
2017-12-23T01:58:15.482Z,2.53
2017-12-23T01:58:49.187Z,3.15
2017-12-23T01:59:22.837Z,4.07
2017-12-23T01:59:57.270Z,3.00
2017-12-23T02:00:30.929Z,3.60
2017-12-23T02:01:05.342Z,2.60
2017-12-23T02:01:39.752Z,2.42
2017-12-23T02:02:14.172Z,2.60
2017-12-23T02:02:47.821Z,2.72
2017-12-23T02:03:21.472Z,3.25
2017-12-23T02:03:55.157Z,3.05
2017-12-23T02:04:28.809Z,3.33
2017-12-23T02:05:03.238Z,2.90
2017-12-23T02:05:36.897Z,2.20
2017-12-23T02:06:10.550Z,2.70
2017-12-23T02:06:44.215Z,4.12
2017-12-23T02:07:17.870Z,3.25
2017-12-23T02:07:52.296Z,3.10
2017-12-23T02:08:25.949Z,3.12
2017-12-23T02:08:59.618Z,2.67
2017-12-23T02:09:33.288Z,2.72
2017-12-23T02:10:06.947Z,3.12
2017-12-23T02:10:41.411Z,3.30
2017-12-23T02:11:15.072Z,3.60
2017-12-23T02:11:48.730Z,3.42
2017-12-23T02:12:23.154Z,3.70
2017-12-23T02:12:56.827Z,3.20
2017-12-23T02:13:31.252Z,3.80
2017-12-23T02:14:05.197Z,3.15
2017-12-23T02:14:38.857Z,2.92
2017-12-23T02:15:12.511Z,3.75
2017-12-23T02:15:46.950Z,2.75
2017-12-23T02:16:20.622Z,3.47
2017-12-23T02:16:54.290Z,3.65
2017-12-23T02:17:28.751Z,3.62
2017-12-23T02:18:02.459Z,3.40
2017-12-23T02:18:36.114Z,3.83
2017-12-23T02:19:09.799Z,4.18
2017-12-23T02:19:44.230Z,3.80
2017-12-23T02:20:17.899Z,4.65
2017-12-23T02:20:51.558Z,4.53
2017-12-23T02:21:25.975Z,4.87
2017-12-23T02:21:59.654Z,4.65
2017-12-23T02:22:33.334Z,4.65
2017-12-23T02:23:07.765Z,5.35
2017-12-23T02:23:41.426Z,4.70
2017-12-23T02:24:15.108Z,4.65
2017-12-23T02:24:48.766Z,4.70
2017-12-23T02:25:22.435Z,5.05
2017-12-23T02:25:56.095Z,5.87
2017-12-23T02:26:30.515Z,5.62
2017-12-23T02:27:04.181Z,5.30
2017-12-23T02:27:38.610Z,5.68
2017-12-23T02:28:12.261Z,5.57
2017-12-23T02:28:45.923Z,5.85
2017-12-23T02:29:19.622Z,6.12
2017-12-23T02:29:53.296Z,5.35
2017-12-23T02:30:26.969Z,6.53
2017-12-23T02:31:00.619Z,6.00
2017-12-23T02:31:34.270Z,5.60
2017-12-23T02:32:07.947Z,5.28
2017-12-23T02:32:41.603Z,5.65
2017-12-23T02:33:16.039Z,6.20
2017-12-23T02:33:49.723Z,5.53
2017-12-23T02:34:23.426Z,5.80
2017-12-23T02:34:57.100Z,6.12
2017-12-23T02:35:30.746Z,6.18
2017-12-23T02:36:04.422Z,5.78
2017-12-23T02:36:38.093Z,5.90
2017-12-23T02:37:11.778Z,6.00
2017-12-23T02:37:45.440Z,5.80
2017-12-23T02:38:19.113Z,6.10
2017-12-23T02:38:53.539Z,6.50
2017-12-23T02:39:27.232Z,6.03
2017-12-23T02:40:00.893Z,6.78
2017-12-23T02:40:35.342Z,7.10
2017-12-23T02:41:09.046Z,6.57
2017-12-23T02:41:42.705Z,7.00
2017-12-23T02:42:16.363Z,6.53
2017-12-23T02:42:50.022Z,7.07
2017-12-23T02:43:23.686Z,7.32
2017-12-23T02:43:57.347Z,6.40
2017-12-23T02:44:31.797Z,7.15
2017-12-23T02:45:05.478Z,6.93
2017-12-23T02:45:39.134Z,7.62
2017-12-23T02:46:13.553Z,8.30
2017-12-23T02:46:47.213Z,8.10
2017-12-23T02:47:20.882Z,7.15
2017-12-23T02:47:54.538Z,8.05
2017-12-23T02:48:28.199Z,7.50
2017-12-23T02:49:02.609Z,7.40
2017-12-23T02:49:37.420Z,7.62
2017-12-23T02:50:11.078Z,7.15
2017-12-23T02:50:44.744Z,7.60
2017-12-23T02:51:18.425Z,7.93
2017-12-23T02:51:52.082Z,8.15
2017-12-23T02:52:26.525Z,8.27
2017-12-23T02:53:00.186Z,8.65
2017-12-23T02:53:33.852Z,8.30
2017-12-23T02:54:08.276Z,7.90
2017-12-23T02:54:41.958Z,8.13
2017-12-23T02:55:16.386Z,8.73
2017-12-23T02:55:50.051Z,7.82
2017-12-23T02:56:24.482Z,8.10
2017-12-23T02:56:58.142Z,8.48
2017-12-23T02:57:32.566Z,8.45
2017-12-23T02:58:06.240Z,8.23
2017-12-23T02:58:40.671Z,8.05
2017-12-23T02:59:14.342Z,8.57
2017-12-23T02:59:49.161Z,8.80
2017-12-23T03:00:23.595Z,8.73
2017-12-23T03:00:57.262Z,8.15
2017-12-23T03:01:31.697Z,9.15
2017-12-23T03:02:05.381Z,9.00
2017-12-23T03:02:39.070Z,8.75
2017-12-23T03:03:12.726Z,8.80
2017-12-23T03:03:47.150Z,9.77
2017-12-23T03:04:20.830Z,9.10
2017-12-23T03:04:55.275Z,9.05
2017-12-23T03:05:29.027Z,8.35
2017-12-23T03:06:03.483Z,8.77
2017-12-23T03:06:37.144Z,9.63
2017-12-23T03:07:10.807Z,9.00
2017-12-23T03:07:45.254Z,9.55
2017-12-23T03:08:18.948Z,7.78
2017-12-23T03:08:52.615Z,8.73
2017-12-23T03:09:26.298Z,9.02
2017-12-23T03:10:00.762Z,8.18
2017-12-23T03:10:34.422Z,9.35
2017-12-23T03:11:08.111Z,8.90
2017-12-23T03:11:41.806Z,9.13
2017-12-23T03:12:15.481Z,9.10
2017-12-23T03:12:49.156Z,8.80
2017-12-23T03:13:22.839Z,9.20
2017-12-23T03:13:57.265Z,9.05
2017-12-23T03:14:30.924Z,7.75
2017-12-23T03:15:05.377Z,8.93
2017-12-23T03:15:39.053Z,9.50
2017-12-23T03:16:12.752Z,8.75
2017-12-23T03:16:46.449Z,8.43
2017-12-23T03:17:20.154Z,9.32
2017-12-23T03:17:53.838Z,8.30
2017-12-23T03:18:27.494Z,8.80
2017-12-23T03:19:01.160Z,9.13
2017-12-23T03:19:35.609Z,8.02
2017-12-23T03:20:09.665Z,8.38
2017-12-23T03:20:44.084Z,9.27
2017-12-23T03:21:18.505Z,9.15
2017-12-23T03:21:52.167Z,8.07
2017-12-23T03:22:25.815Z,9.18
2017-12-23T03:22:59.528Z,9.77
2017-12-23T03:23:33.196Z,8.35
2017-12-23T03:24:06.858Z,10.25
2017-12-23T03:24:40.510Z,8.85
2017-12-23T03:25:14.202Z,8.80
2017-12-23T03:25:47.863Z,9.30
2017-12-23T03:26:21.545Z,8.73
2017-12-23T03:26:55.218Z,9.57
2017-12-23T03:27:28.870Z,9.02
2017-12-23T03:28:03.302Z,9.63
2017-12-23T03:28:36.973Z,8.82
2017-12-23T03:29:11.405Z,9.77
2017-12-23T03:29:45.077Z,9.15
2017-12-23T03:30:18.774Z,8.55
2017-12-23T03:30:52.451Z,9.95
2017-12-23T03:31:26.112Z,9.10
2017-12-23T03:31:59.790Z,9.50
2017-12-23T03:32:33.133Z,9.38
2017-12-23T03:33:06.783Z,8.85
2017-12-23T03:33:40.438Z,9.55
2017-12-23T03:34:14.105Z,8.98
2017-12-23T03:34:47.765Z,9.55
2017-12-23T03:35:21.474Z,10.02
2017-12-23T03:35:55.130Z,9.65
2017-12-23T03:36:28.125Z,9.50
2017-12-23T03:37:01.792Z,9.98
2017-12-23T03:37:36.226Z,8.65
2017-12-23T03:38:09.889Z,9.73
2017-12-23T03:38:44.321Z,10.30
2017-12-23T03:39:17.650Z,9.77
2017-12-23T03:39:51.331Z,8.95
2017-12-23T03:40:25.380Z,9.05
2017-12-23T03:40:59.054Z,9.57
2017-12-23T03:41:33.487Z,9.70
2017-12-23T03:42:07.164Z,10.00
2017-12-23T03:42:41.588Z,9.70
2017-12-23T03:43:15.250Z,9.18
2017-12-23T03:43:49.757Z,9.57
2017-12-23T03:44:24.191Z,9.07
2017-12-23T03:44:57.853Z,9.80
2017-12-23T03:45:31.537Z,8.60
2017-12-23T03:46:05.198Z,9.68
2017-12-23T03:46:38.857Z,9.23
2017-12-23T03:47:12.526Z,9.02
2017-12-23T03:47:46.947Z,9.68
2017-12-23T03:48:20.621Z,9.32
2017-12-23T03:48:55.048Z,9.70
2017-12-23T03:49:28.702Z,8.85
2017-12-23T03:50:03.139Z,9.63
2017-12-23T03:50:37.106Z,9.10
2017-12-23T03:51:11.529Z,9.68
2017-12-23T03:51:45.958Z,10.07
2017-12-23T03:52:19.629Z,9.20
2017-12-23T03:52:53.296Z,9.68
2017-12-23T03:53:26.960Z,9.80
2017-12-23T03:54:00.614Z,8.93
2017-12-23T03:54:34.294Z,9.18
2017-12-23T03:55:07.970Z,10.40
2017-12-23T03:55:41.685Z,10.10
2017-12-23T03:56:15.362Z,10.05
2017-12-23T03:56:49.023Z,10.20
2017-12-23T03:57:23.453Z,10.77
2017-12-23T03:57:57.122Z,10.70
2017-12-23T03:58:31.559Z,10.00
2017-12-23T03:59:05.246Z,10.40
2017-12-23T03:59:38.918Z,11.45
2017-12-23T04:00:13.359Z,10.68
2017-12-23T04:00:47.058Z,11.57
2017-12-23T04:01:20.774Z,10.65
2017-12-23T04:01:54.448Z,11.88
2017-12-23T04:02:28.110Z,9.93
2017-12-23T04:03:01.789Z,12.05
2017-12-23T04:03:35.453Z,10.82
2017-12-23T04:04:09.878Z,10.68
2017-12-23T04:04:43.550Z,10.25
2017-12-23T04:05:17.983Z,10.32
2017-12-23T04:05:51.674Z,10.48
2017-12-23T04:06:25.334Z,9.85
2017-12-23T04:06:59.759Z,10.80
2017-12-23T04:07:33.425Z,11.07
2017-12-23T04:08:07.867Z,10.80
2017-12-23T04:08:41.537Z,11.60
2017-12-23T04:09:15.970Z,11.35
2017-12-23T04:09:49.636Z,9.82
2017-12-23T04:10:24.066Z,11.90
2017-12-23T04:10:58.024Z,11.90
2017-12-23T04:11:32.456Z,11.23
2017-12-23T04:12:06.128Z,11.32
2017-12-23T04:12:40.575Z,11.77
2017-12-23T04:13:14.242Z,12.65
2017-12-23T04:13:47.915Z,11.63
2017-12-23T04:14:22.349Z,11.70
2017-12-23T04:14:56.013Z,10.90
2017-12-23T04:15:30.457Z,12.02
2017-12-23T04:16:04.156Z,10.80
2017-12-23T04:16:37.833Z,11.55
2017-12-23T04:17:11.499Z,11.70
2017-12-23T04:17:45.170Z,11.82
2017-12-23T04:18:19.598Z,11.32
2017-12-23T04:18:53.265Z,11.65
2017-12-23T04:19:27.696Z,12.25
2017-12-23T04:20:01.353Z,11.45
2017-12-23T04:20:35.032Z,11.77
2017-12-23T04:21:08.726Z,12.20
2017-12-23T04:21:42.408Z,11.20
2017-12-23T04:22:16.080Z,12.35
2017-12-23T04:22:49.739Z,13.32
2017-12-23T04:23:23.418Z,12.63
2017-12-23T04:23:57.084Z,12.25
2017-12-23T04:24:30.884Z,13.50
2017-12-23T04:25:05.314Z,12.40
2017-12-23T04:25:38.985Z,12.07
2017-12-23T04:26:13.466Z,11.38
2017-12-23T04:26:47.124Z,12.23
2017-12-23T04:27:20.800Z,12.93
2017-12-23T04:27:54.469Z,11.93
2017-12-23T04:28:28.146Z,12.00
2017-12-23T04:29:02.573Z,12.15
2017-12-23T04:29:36.307Z,11.40
2017-12-23T04:30:10.156Z,12.52
2017-12-23T04:30:43.826Z,13.25
2017-12-23T04:31:18.278Z,11.80
2017-12-23T04:31:51.966Z,13.10
2017-12-23T04:32:25.630Z,12.48
2017-12-23T04:32:59.302Z,11.73
2017-12-23T04:33:33.914Z,12.40
2017-12-23T04:34:08.360Z,12.80
2017-12-23T04:34:42.022Z,13.30
2017-12-23T04:35:15.681Z,12.02
2017-12-23T04:35:49.359Z,12.55
2017-12-23T04:36:23.298Z,14.30
2017-12-23T04:36:57.002Z,12.50
2017-12-23T04:37:30.674Z,13.40
2017-12-23T04:38:04.339Z,12.35
2017-12-23T04:38:38.026Z,13.10
2017-12-23T04:39:11.708Z,12.82
2017-12-23T04:39:45.373Z,12.13
2017-12-23T04:40:19.049Z,13.32
2017-12-23T04:40:52.566Z,12.70
2017-12-23T04:41:26.263Z,12.45
2017-12-23T04:41:59.934Z,12.65
2017-12-23T04:42:33.618Z,12.50
2017-12-23T04:43:07.291Z,12.32
2017-12-23T04:43:41.046Z,11.43
2017-12-23T04:44:15.490Z,12.18
2017-12-23T04:44:49.156Z,12.30
2017-12-23T04:45:22.845Z,13.02
2017-12-23T04:45:56.531Z,12.60
2017-12-23T04:46:31.013Z,12.65
2017-12-23T04:47:04.676Z,13.02
2017-12-23T04:47:38.350Z,10.95
2017-12-23T04:48:12.017Z,11.77
2017-12-23T04:48:45.683Z,12.80
2017-12-23T04:49:20.117Z,12.80
2017-12-23T04:49:53.820Z,12.82
2017-12-23T04:50:27.484Z,12.90
2017-12-23T04:51:01.157Z,13.15
2017-12-23T04:51:35.606Z,12.85
2017-12-23T04:52:09.270Z,13.13
2017-12-23T04:52:43.715Z,12.48
2017-12-23T04:53:17.390Z,13.00
2017-12-23T04:53:51.144Z,12.20
2017-12-23T04:54:25.566Z,12.60
2017-12-23T04:54:59.227Z,12.95
2017-12-23T04:55:33.662Z,12.48
2017-12-23T04:56:07.349Z,12.75
2017-12-23T04:56:41.823Z,12.50
2017-12-23T04:57:15.481Z,12.35
2017-12-23T04:57:49.342Z,12.93
2017-12-23T04:58:23.021Z,12.45
2017-12-23T04:58:57.455Z,12.63
2017-12-23T04:59:31.153Z,13.62
2017-12-23T05:00:04.162Z,12.57
2017-12-23T05:00:37.836Z,11.65
2017-12-23T05:01:11.513Z,12.70
2017-12-23T05:01:45.577Z,12.63
2017-12-23T05:02:20.018Z,12.85
2017-12-23T05:02:53.689Z,12.50
2017-12-23T05:03:27.352Z,11.85
2017-12-23T05:04:01.798Z,11.95
2017-12-23T05:04:35.462Z,11.45
2017-12-23T05:05:09.151Z,12.52
2017-12-23T05:05:42.823Z,12.30
2017-12-23T05:06:17.267Z,13.27
2017-12-23T05:06:51.234Z,11.70
2017-12-23T05:07:25.667Z,12.00
2017-12-23T05:07:59.429Z,11.98
2017-12-23T05:08:33.854Z,11.65
2017-12-23T05:09:07.514Z,12.35
2017-12-23T05:09:41.190Z,12.25
2017-12-23T05:10:14.860Z,11.30
2017-12-23T05:10:48.539Z,13.50
2017-12-23T05:11:22.212Z,12.60
2017-12-23T05:11:55.912Z,12.65
2017-12-23T05:12:29.574Z,12.80
2017-12-23T05:13:04.022Z,12.37
2017-12-23T05:13:37.703Z,12.50
2017-12-23T05:14:11.388Z,11.52
2017-12-23T05:14:45.051Z,13.52
2017-12-23T05:15:19.534Z,12.80
2017-12-23T05:15:53.350Z,12.20
2017-12-23T05:16:27.789Z,11.63
2017-12-23T05:17:01.491Z,12.70
2017-12-23T05:17:35.163Z,12.52
2017-12-23T05:18:08.825Z,13.43
2017-12-23T05:18:43.261Z,11.50
2017-12-23T05:19:16.926Z,11.95
2017-12-23T05:19:50.595Z,11.93
2017-12-23T05:20:24.263Z,11.50
2017-12-23T05:20:57.938Z,12.73
2017-12-23T05:21:31.607Z,13.30
2017-12-23T05:22:05.575Z,12.02
2017-12-23T05:22:40.011Z,12.68
2017-12-23T05:23:13.679Z,12.07
2017-12-23T05:23:47.338Z,12.55
2017-12-23T05:24:21.776Z,13.18
2017-12-23T05:24:55.447Z,11.82
2017-12-23T05:25:29.918Z,13.10
2017-12-23T05:26:03.596Z,12.88
2017-12-23T05:26:37.269Z,12.25
2017-12-23T05:27:11.494Z,13.30
2017-12-23T05:27:45.162Z,12.40
2017-12-23T05:28:18.818Z,12.60
2017-12-23T05:28:53.260Z,12.50
2017-12-23T05:29:26.929Z,12.88
2017-12-23T05:30:00.602Z,12.20
2017-12-23T05:30:35.038Z,14.45
2017-12-23T05:31:08.706Z,11.95
2017-12-23T05:31:43.149Z,13.82
2017-12-23T05:32:17.208Z,14.60
2017-12-23T05:32:51.651Z,13.85
2017-12-23T05:33:25.315Z,14.63
2017-12-23T05:33:58.979Z,13.85
2017-12-23T05:34:32.665Z,13.05
2017-12-23T05:35:06.329Z,14.15
2017-12-23T05:35:40.008Z,12.50
2017-12-23T05:36:13.670Z,13.80
2017-12-23T05:36:47.340Z,13.50
2017-12-23T05:37:21.840Z,13.50
2017-12-23T05:37:55.503Z,14.35
2017-12-23T05:38:29.174Z,13.77
2017-12-23T05:39:02.871Z,15.05
2017-12-23T05:39:36.539Z,15.88
2017-12-23T05:40:10.210Z,14.43
2017-12-23T05:40:43.894Z,14.35
2017-12-23T05:41:18.322Z,13.85
2017-12-23T05:41:52.012Z,14.25
2017-12-23T05:42:25.705Z,15.05
2017-12-23T05:42:59.371Z,14.77
2017-12-23T05:43:33.028Z,15.35
2017-12-23T05:44:06.690Z,15.73
2017-12-23T05:44:40.355Z,15.10
2017-12-23T05:45:14.022Z,15.48
2017-12-23T05:45:48.455Z,18.25
2017-12-23T05:46:22.117Z,15.48
2017-12-23T05:46:56.544Z,15.50
2017-12-23T05:47:30.233Z,15.55
2017-12-23T05:48:03.891Z,15.73
2017-12-23T05:48:37.549Z,14.85
2017-12-23T05:49:11.227Z,15.07
2017-12-23T05:49:44.909Z,15.90
2017-12-23T05:50:18.574Z,16.02
2017-12-23T05:50:52.248Z,15.77
2017-12-23T05:51:26.696Z,15.50
2017-12-23T05:52:00.374Z,15.80
2017-12-23T05:52:34.083Z,17.10
2017-12-23T05:53:07.764Z,15.55
2017-12-23T05:53:41.426Z,15.75
2017-12-23T05:54:15.859Z,16.17
2017-12-23T05:54:49.521Z,15.45
2017-12-23T05:55:23.966Z,15.75
2017-12-23T05:55:57.621Z,16.45
2017-12-23T05:56:32.077Z,16.12
2017-12-23T05:57:05.747Z,16.52
2017-12-23T05:57:39.442Z,17.10
2017-12-23T05:58:13.111Z,17.25
2017-12-23T05:58:46.768Z,17.05
2017-12-23T05:59:21.204Z,17.25
2017-12-23T05:59:54.865Z,18.10
2017-12-23T06:00:29.293Z,17.37
2017-12-23T06:01:02.960Z,18.60
2017-12-23T06:01:36.631Z,16.05
2017-12-23T06:02:10.292Z,18.00
2017-12-23T06:02:43.991Z,18.52
2017-12-23T06:03:17.664Z,17.40
2017-12-23T06:03:51.321Z,17.15
2017-12-23T06:04:25.759Z,17.00
2017-12-23T06:04:59.416Z,17.48
2017-12-23T06:05:33.845Z,17.80
2017-12-23T06:06:07.510Z,18.23
2017-12-23T06:06:41.956Z,17.10
2017-12-23T06:07:15.609Z,15.75
2017-12-23T06:07:50.071Z,17.27
2017-12-23T06:08:23.795Z,16.62
2017-12-23T06:08:58.230Z,17.67
2017-12-23T06:09:31.893Z,17.08
2017-12-23T06:10:05.555Z,16.90
2017-12-23T06:10:39.220Z,17.27
2017-12-23T06:11:12.893Z,17.02
2017-12-23T06:11:46.553Z,16.33
2017-12-23T06:12:20.984Z,15.82
2017-12-23T06:12:54.675Z,16.52
2017-12-23T06:13:28.349Z,16.02
2017-12-23T06:14:02.844Z,16.52
2017-12-23T06:14:36.506Z,15.57
2017-12-23T06:15:10.162Z,16.12
2017-12-23T06:15:43.810Z,15.02
2017-12-23T06:16:17.475Z,16.58
2017-12-23T06:16:51.137Z,15.73
2017-12-23T06:17:24.794Z,14.80
2017-12-23T06:17:59.242Z,15.82
2017-12-23T06:18:32.914Z,14.90
2017-12-23T06:19:06.566Z,16.70
2017-12-23T06:19:40.233Z,16.83
2017-12-23T06:20:13.894Z,16.90
2017-12-23T06:20:47.570Z,17.58
2017-12-23T06:21:21.227Z,15.63
2017-12-23T06:21:55.646Z,15.50
2017-12-23T06:22:30.085Z,16.37
2017-12-23T06:23:04.037Z,16.75
2017-12-23T06:23:38.465Z,16.77
2017-12-23T06:24:12.135Z,16.10
2017-12-23T06:24:46.546Z,16.75
2017-12-23T06:25:20.977Z,15.65
2017-12-23T06:25:54.648Z,15.80
2017-12-23T06:26:28.353Z,16.58
2017-12-23T06:27:02.014Z,15.02
2017-12-23T06:27:36.434Z,16.67
2017-12-23T06:28:10.889Z,15.63
2017-12-23T06:28:44.562Z,16.05
2017-12-23T06:29:18.217Z,16.37
2017-12-23T06:29:52.647Z,15.63
2017-12-23T06:30:26.305Z,14.45
2017-12-23T06:31:00.727Z,16.25
2017-12-23T06:31:35.157Z,16.02
2017-12-23T06:32:08.818Z,17.23
2017-12-23T06:32:43.261Z,17.05
2017-12-23T06:33:16.951Z,16.45
2017-12-23T06:33:50.298Z,17.60
2017-12-23T06:34:24.725Z,15.55
2017-12-23T06:34:58.398Z,16.80
2017-12-23T06:35:32.099Z,17.80
2017-12-23T06:36:05.925Z,17.67
2017-12-23T06:36:39.587Z,17.08
2017-12-23T06:37:13.345Z,17.40
2017-12-23T06:37:47.786Z,17.42
2017-12-23T06:38:21.474Z,17.75
2017-12-23T06:38:55.198Z,17.83
2017-12-23T06:39:28.866Z,18.30
2017-12-23T06:40:02.540Z,16.08
2017-12-23T06:40:36.206Z,17.12
2017-12-23T06:41:10.649Z,17.25
2017-12-23T06:41:44.314Z,17.83
2017-12-23T06:42:18.745Z,16.95
2017-12-23T06:42:52.410Z,17.08
2017-12-23T06:43:26.861Z,16.85
2017-12-23T06:44:00.530Z,16.65
2017-12-23T06:44:34.194Z,17.12
2017-12-23T06:45:08.620Z,16.10
2017-12-23T06:45:42.277Z,17.25
2017-12-23T06:46:16.707Z,17.20
2017-12-23T06:46:50.374Z,17.33
2017-12-23T06:47:24.800Z,15.68
2017-12-23T06:47:58.471Z,16.25
2017-12-23T06:48:32.926Z,16.58
2017-12-23T06:49:06.590Z,15.23
2017-12-23T06:49:40.260Z,16.45
2017-12-23T06:50:14.690Z,14.65
2017-12-23T06:50:48.354Z,14.82
2017-12-23T06:51:22.791Z,15.57
2017-12-23T06:51:56.460Z,14.77
2017-12-23T06:52:30.906Z,15.70
2017-12-23T06:53:04.753Z,15.50
2017-12-23T06:53:39.569Z,15.48
2017-12-23T06:54:14.003Z,15.02
2017-12-23T06:54:47.653Z,16.05
2017-12-23T06:55:21.312Z,15.43
2017-12-23T06:55:54.965Z,15.13
2017-12-23T06:56:28.619Z,16.02
2017-12-23T06:57:02.281Z,15.02
2017-12-23T06:57:36.000Z,14.50
2017-12-23T06:58:09.666Z,14.68
2017-12-23T06:58:43.350Z,13.82
2017-12-23T06:59:17.014Z,15.25
2017-12-23T06:59:50.681Z,14.00
2017-12-23T07:00:25.112Z,14.57
2017-12-23T07:00:58.789Z,13.55
2017-12-23T07:01:32.454Z,13.98
2017-12-23T07:02:06.117Z,13.62
2017-12-23T07:02:39.774Z,14.90
2017-12-23T07:03:13.434Z,15.27
2017-12-23T07:03:47.891Z,15.23
2017-12-23T07:04:21.577Z,13.65
2017-12-23T07:04:55.253Z,13.85
2017-12-23T07:05:28.915Z,15.13
2017-12-23T07:06:02.583Z,13.50
2017-12-23T07:06:36.267Z,15.10
2017-12-23T07:07:09.926Z,13.80
2017-12-23T07:07:43.596Z,14.00
2017-12-23T07:08:17.285Z,13.48
2017-12-23T07:08:51.224Z,13.75
2017-12-23T07:09:24.890Z,13.52
2017-12-23T07:09:58.553Z,15.20
2017-12-23T07:10:32.214Z,14.55
2017-12-23T07:11:06.637Z,14.07
2017-12-23T07:11:40.305Z,14.32
2017-12-23T07:12:14.734Z,14.57
2017-12-23T07:12:48.402Z,13.48
2017-12-23T07:13:22.834Z,13.55
2017-12-23T07:13:56.538Z,13.60
2017-12-23T07:14:30.205Z,13.55
2017-12-23T07:15:03.882Z,13.40
2017-12-23T07:15:38.317Z,13.32
2017-12-23T07:16:11.978Z,14.27
2017-12-23T07:16:46.422Z,14.43
2017-12-23T07:17:20.112Z,13.62
2017-12-23T07:17:53.765Z,14.55
2017-12-23T07:18:27.421Z,14.30
2017-12-23T07:19:01.106Z,13.75
2017-12-23T07:19:34.779Z,14.40
2017-12-23T07:20:08.467Z,14.23
2017-12-23T07:20:42.130Z,12.55
2017-12-23T07:21:16.549Z,14.68
2017-12-23T07:21:50.210Z,14.90
2017-12-23T07:22:24.654Z,13.93
2017-12-23T07:22:58.323Z,13.80
2017-12-23T07:23:32.954Z,13.82
2017-12-23T07:24:07.013Z,14.75
2017-12-23T07:24:41.449Z,15.30